Time;durP1;ratioP1;P1;durP2;ratioP2;P2;SDS_P1;SDS_P2;PMS_P1;PMS_P2;Temp;Humidity;BMP_temperature;BMP_pressure;BME280_temperature;BME280_humidity;BME280_pressure;Samples;Min_cycle;Max_cycle;Signal;HPM_P1;HPM_P2
2022/01/25 00:31:13;;;;;;;64.72;39.22;;;4.20;99.90;;;;;;5126024;28;20051;-65
2022/01/25 00:33:42;;;;;;;64.82;37.72;;;4.10;99.90;;;;;;5159753;27;20054;-65
2022/01/25 00:36:10;;;;;;;65.53;38.50;;;4.10;99.90;;;;;;5159567;27;20058;-65
2022/01/25 00:38:37;;;;;;;63.08;37.40;;;4.10;99.90;;;;;;5122975;28;20063;-65
2022/01/25 00:41:02;;;;;;;62.03;36.67;;;4.20;99.90;;;;;;5124903;28;20042;-65
2022/01/25 00:43:28;;;;;;;65.25;38.10;;;4.20;99.90;;;;;;5125356;28;20047;-65
2022/01/25 00:45:58;;;;;;;67.72;38.40;;;4.30;99.90;;;;;;5126582;28;20046;-65
2022/01/25 00:51:56;;;;;;;62.95;35.85;;;4.20;99.90;;;;;;5115716;28;19945;-65
2022/01/25 00:54:28;;;;;;;65.97;36.58;;;4.20;99.90;;;;;;5122827;28;20083;-65
2022/01/25 00:56:55;;;;;;;69.30;40.05;;;4.30;99.90;;;;;;5126336;28;20407;-65
2022/01/25 00:59:30;;;;;;;63.13;37.10;;;4.60;99.90;;;;;;5109019;28;20446;-65
2022/01/25 01:01:58;;;;;;;64.28;37.95;;;4.50;99.90;;;;;;5126137;28;20063;-65
2022/01/25 01:04:24;;;;;;;65.47;38.83;;;4.50;99.90;;;;;;5109432;28;20036;-65
2022/01/25 01:06:51;;;;;;;67.40;39.65;;;4.50;99.90;;;;;;5108540;28;20531;-65
2022/01/25 01:09:19;;;;;;;63.25;37.25;;;4.30;99.90;;;;;;5107315;28;20135;-65
2022/01/25 01:12:00;;;;;;;67.68;38.67;;;4.40;99.90;;;;;;5114618;28;20047;-65
2022/01/25 01:43:46;;;;;;;70.03;39.80;;;4.00;99.90;;;;;;5103561;28;20048;-65
2022/01/25 01:48:51;;;;;;;72.45;40.53;;;4.10;99.90;;;;;;5106780;28;20047;-65
2022/01/25 01:51:25;;;;;;;63.23;36.27;;;4.00;99.90;;;;;;5125250;28;20544;-65
2022/01/25 01:53:52;;;;;;;66.57;38.88;;;4.00;99.90;;;;;;5106294;28;20051;-65
2022/01/25 01:56:18;;;;;;;69.20;38.63;;;3.90;99.90;;;;;;5140751;27;20052;-65
2022/01/25 01:58:44;;;;;;;68.75;39.38;;;3.90;99.90;;;;;;5123604;28;20043;-65
2022/01/25 02:01:14;;;;;;;66.63;38.40;;;3.90;99.90;;;;;;5125178;28;20092;-65
2022/01/25 02:03:40;;;;;;;66.15;38.00;;;3.80;99.90;;;;;;5117172;28;20051;-65
2022/01/25 02:06:06;;;;;;;70.10;38.38;;;3.90;99.90;;;;;;5123636;28;20561;-65
2022/01/25 02:08:33;;;;;;;69.22;39.38;;;4.10;99.90;;;;;;5112071;28;20044;-65
2022/01/25 02:11:03;;;;;;;64.65;38.40;;;4.10;99.90;;;;;;5122744;28;20051;-65
2022/01/25 02:13:30;;;;;;;70.05;41.25;;;3.90;99.90;;;;;;5124167;28;20070;-65
2022/01/25 02:15:57;;;;;;;65.38;38.22;;;3.80;99.90;;;;;;5107834;28;20047;-65
2022/01/25 02:23:53;;;;;;;71.07;39.45;;;4.00;99.90;;;;;;5156515;27;20564;-65
2022/01/25 02:26:18;;;;;;;69.32;41.03;;;4.10;99.90;;;;;;5123322;28;20039;-65
2022/01/25 02:28:45;;;;;;;72.05;40.50;;;4.10;99.90;;;;;;5122883;28;20067;-65
2022/01/25 02:31:14;;;;;;;67.75;36.60;;;4.00;99.90;;;;;;5123438;28;20125;-65
2022/01/25 02:33:41;;;;;;;68.30;39.05;;;4.20;99.90;;;;;;5122317;28;20054;-65
2022/01/25 02:36:12;;;;;;;70.93;40.83;;;4.20;99.90;;;;;;5117332;28;20512;-65
2022/01/25 02:38:39;;;;;;;70.20;39.33;;;3.90;99.90;;;;;;5117057;28;20047;-65
2022/01/25 02:41:05;;;;;;;67.85;39.03;;;3.80;99.90;;;;;;5123288;28;20055;-65
2022/01/25 02:43:34;;;;;;;70.70;41.15;;;3.80;99.90;;;;;;5124137;28;20051;-65
2022/01/25 02:46:20;;;;;;;72.32;40.28;;;3.80;99.90;;;;;;5124241;28;20051;-65
2022/01/25 02:48:50;;;;;;;71.32;40.60;;;3.80;99.90;;;;;;5117136;28;20118;-65
2022/01/25 02:51:16;;;;;;;;;;;3.80;99.90;;;;;;5126070;28;20074;-65
2022/01/25 02:53:42;;;;;;;73.47;38.60;;;3.70;99.90;;;;;;5124311;28;19919;-65
2022/01/25 02:56:07;;;;;;;71.72;39.83;;;3.70;99.90;;;;;;5117917;28;20489;-65
2022/01/25 02:58:33;;;;;;;70.70;39.10;;;3.60;99.90;;;;;;5123381;28;20043;-65
2022/01/25 03:00:59;;;;;;;70.63;40.85;;;3.60;99.90;;;;;;5117729;28;20122;-65
2022/01/25 03:03:24;;;;;;;75.57;40.75;;;3.70;99.90;;;;;;5113270;28;20038;-65
2022/01/25 03:05:50;;;;;;;74.22;42.40;;;3.60;99.90;;;;;;5124296;28;20400;-65
2022/01/25 03:08:17;;;;;;;71.85;39.80;;;3.60;99.90;;;;;;5157663;27;20044;-65
2022/01/25 03:10:45;;;;;;;69.30;41.10;;;3.60;99.90;;;;;;5123717;28;20042;-65
2022/01/25 03:13:19;;;;;;;68.63;39.58;;;3.60;99.90;;;;;;5139649;28;20052;-65
2022/01/25 03:18:35;;;;;;;73.70;41.88;;;3.60;99.90;;;;;;5158707;27;20040;-65
2022/01/25 03:21:15;;;;;;;69.57;38.63;;;3.50;99.90;;;;;;5122241;28;20060;-65
2022/01/25 03:23:41;;;;;;;74.70;41.75;;;3.60;99.90;;;;;;5133615;28;20052;-65
2022/01/25 03:26:06;;;;;;;70.50;39.05;;;3.60;99.90;;;;;;5123680;28;20046;-65
2022/01/25 03:28:32;;;;;;;77.72;41.33;;;3.60;99.90;;;;;;5122755;28;20093;-65
2022/01/25 03:30:58;;;;;;;73.90;41.17;;;3.50;99.90;;;;;;5156858;27;20047;-65
2022/01/25 03:33:23;;;;;;;71.80;40.85;;;3.50;99.90;;;;;;5123995;28;20051;-65
2022/01/25 03:35:49;;;;;;;73.25;41.20;;;3.50;99.90;;;;;;5105759;28;20040;-65
2022/01/25 03:38:15;;;;;;;69.88;39.30;;;3.50;99.90;;;;;;5122963;28;20055;-65
2022/01/25 03:40:41;;;;;;;70.03;38.58;;;3.50;99.90;;;;;;5125327;28;20054;-65
2022/01/25 03:43:08;;;;;;;68.55;38.85;;;3.50;99.90;;;;;;5118875;28;20028;-65
2022/01/25 03:45:36;;;;;;;73.13;40.80;;;3.50;99.90;;;;;;5127699;28;20052;-65
2022/01/25 03:50:41;;;;;;;71.28;39.10;;;3.50;99.90;;;;;;5126701;28;20226;-65
2022/01/25 03:53:09;;;;;;;69.68;39.75;;;3.60;99.90;;;;;;5091531;28;20062;-65
2022/01/25 03:55:35;;;;;;;70.75;39.03;;;3.60;99.90;;;;;;5107393;28;20626;-65
2022/01/25 03:58:01;;;;;;;74.15;41.08;;;3.60;99.90;;;;;;5127570;28;20069;-65
2022/01/25 04:00:27;;;;;;;74.00;40.65;;;3.60;99.90;;;;;;5154921;27;20043;-65
2022/01/25 04:03:00;;;;;;;69.97;38.97;;;3.60;99.90;;;;;;5126208;28;20107;-65
2022/01/25 04:05:36;;;;;;;69.53;38.95;;;3.60;99.90;;;;;;5159134;27;20047;-65
2022/01/25 04:08:03;;;;;;;70.60;38.78;;;3.50;99.90;;;;;;5161515;27;20107;-65
2022/01/25 04:10:28;;;;;;;72.70;39.97;;;3.60;99.90;;;;;;5125453;28;20044;-65
2022/01/25 04:12:54;;;;;;;74.97;40.25;;;3.60;99.90;;;;;;5126786;27;20092;-65
2022/01/25 04:15:20;;;;;;;70.43;38.53;;;3.60;99.90;;;;;;5124401;28;20039;-65
2022/01/25 04:17:51;;;;;;;70.85;40.38;;;3.50;99.90;;;;;;5109517;28;20075;-65
2022/01/25 04:20:23;;;;;;;71.35;39.20;;;3.50;99.90;;;;;;5127247;27;20067;-65
2022/01/25 04:25:33;;;;;;;71.05;39.33;;;3.60;99.90;;;;;;5128127;28;20400;-65
2022/01/25 04:27:59;;;;;;;73.75;39.88;;;3.50;99.90;;;;;;5127147;28;20044;-65
2022/01/25 04:30:25;;;;;;;72.45;39.42;;;3.50;99.90;;;;;;5142331;27;20051;-65
2022/01/25 04:33:03;;;;;;;72.55;39.13;;;3.50;99.90;;;;;;5126718;28;20066;-65
2022/01/25 04:49:08;;;;;;;73.57;40.47;;;3.60;99.90;;;;;;5128448;27;20066;-65
2022/01/25 04:52:19;;;;;;;73.57;40.55;;;3.60;99.90;;;;;;5124939;28;20051;-65
2022/01/25 04:54:40;;;;;;;71.22;39.60;;;3.60;99.90;;;;;;5107418;28;20052;-65
2022/01/25 05:02:34;;;;;;;69.05;38.72;;;3.60;99.90;;;;;;5156289;27;20104;-65
2022/01/25 05:05:10;;;;;;;68.60;37.40;;;3.60;99.90;;;;;;5160159;27;20087;-65
2022/01/25 05:07:50;;;;;;;74.97;41.70;;;3.60;99.90;;;;;;5120000;28;20052;-65
2022/01/25 05:10:16;;;;;;;;;;;3.60;99.90;;;;;;5154861;27;20044;-65
2022/01/25 05:12:51;;;;;;;70.35;39.95;;;3.60;99.90;;;;;;5158684;27;19919;-65
2022/01/25 05:15:48;;;;;;;75.00;39.22;;;3.50;99.90;;;;;;5126073;28;20122;-65
2022/01/25 05:18:22;;;;;;;70.43;38.08;;;3.50;99.90;;;;;;5124725;28;20044;-65
2022/01/25 05:23:32;;;;;;;68.50;37.90;;;3.50;99.90;;;;;;5118174;28;20055;-65
2022/01/25 05:25:58;;;;;;;75.57;37.97;;;3.50;99.90;;;;;;5125732;28;20118;-65
2022/01/25 05:28:23;;;;;;;72.57;39.60;;;3.50;99.90;;;;;;5126994;27;20040;-65
2022/01/25 05:30:50;;;;;;;73.25;39.53;;;3.50;99.90;;;;;;5125915;28;20516;-65
2022/01/25 05:33:16;;;;;;;73.38;39.00;;;3.50;99.90;;;;;;5160026;27;20047;-65
2022/01/25 05:35:42;;;;;;;71.28;39.55;;;3.60;99.90;;;;;;5120125;28;20054;-65
2022/01/25 05:38:08;;;;;;;72.38;38.72;;;3.50;99.90;;;;;;5120347;28;20126;-65
2022/01/25 05:40:55;;;;;;;75.63;41.00;;;3.50;99.90;;;;;;5123907;28;20077;-65
2022/01/25 05:46:14;;;;;;;69.43;37.88;;;3.50;99.90;;;;;;5125217;28;20454;-65
2022/01/25 05:48:40;;;;;;;68.20;38.58;;;3.50;99.90;;;;;;5125404;28;20051;-65
2022/01/25 05:51:06;;;;;;;74.22;39.88;;;3.50;99.90;;;;;;5158116;27;20047;-65
2022/01/25 05:53:31;;;;;;;73.72;38.88;;;3.50;99.90;;;;;;5124908;28;20059;-65
2022/01/25 05:55:57;;;;;;;73.88;39.00;;;3.50;99.90;;;;;;5121431;28;20174;-65
2022/01/25 05:58:23;;;;;;;72.63;38.50;;;3.50;99.90;;;;;;5125066;28;20028;-65
2022/01/25 06:00:49;;;;;;;71.90;39.85;;;3.60;99.90;;;;;;5147226;27;20056;-65
2022/01/25 06:03:15;;;;;;;70.65;38.50;;;3.60;99.90;;;;;;5116217;28;20046;-65
2022/01/25 06:05:41;;;;;;;76.13;40.60;;;3.70;99.90;;;;;;5123500;28;20114;-64
2022/01/25 06:08:07;;;;;;;72.55;38.92;;;3.60;99.90;;;;;;5093005;27;20481;-63
2022/01/25 06:10:33;;;;;;;71.95;39.33;;;3.60;99.90;;;;;;5119216;28;20071;-63
2022/01/25 06:12:59;;;;;;;71.03;37.40;;;3.70;99.90;;;;;;5157577;27;20039;-65
2022/01/25 06:15:25;;;;;;;72.30;39.00;;;3.60;99.90;;;;;;5158634;27;20048;-64
2022/01/25 06:17:51;;;;;;;73.93;38.22;;;3.60;99.90;;;;;;5120411;28;20142;-63
2022/01/25 06:20:18;;;;;;;68.22;36.17;;;3.70;99.90;;;;;;5119823;28;20227;-64
2022/01/25 06:22:43;;;;;;;68.40;35.97;;;3.60;99.90;;;;;;5119609;28;20411;-63
2022/01/25 06:25:10;;;;;;;69.10;37.17;;;3.70;99.90;;;;;;5158266;27;20039;-63
2022/01/25 06:27:40;;;;;;;71.82;38.85;;;3.80;99.90;;;;;;5123978;28;20052;-63
2022/01/25 06:30:15;;;;;;;73.55;39.53;;;3.80;99.90;;;;;;5122597;28;20062;-63
2022/01/25 06:32:41;;;;;;;68.07;36.72;;;3.70;99.90;;;;;;5124168;28;20038;-63
2022/01/25 06:35:07;;;;;;;74.88;40.22;;;3.60;99.90;;;;;;5124046;28;20181;-63
2022/01/25 06:37:34;;;;;;;72.30;38.03;;;3.60;99.90;;;;;;5122590;28;20423;-62
2022/01/25 06:40:00;;;;;;;71.18;37.95;;;3.70;99.90;;;;;;5122007;28;20047;-62
2022/01/25 06:42:29;;;;;;;74.38;38.85;;;3.60;99.90;;;;;;5156320;27;20105;-62
2022/01/25 06:44:59;;;;;;;70.88;36.92;;;3.60;99.90;;;;;;5122015;28;20055;-62
2022/01/25 06:47:25;;;;;;;72.45;38.58;;;3.60;99.90;;;;;;5155085;27;20431;-64
2022/01/25 06:49:50;;;;;;;73.57;39.22;;;3.60;99.90;;;;;;5105272;27;20050;-66
2022/01/25 06:52:16;;;;;;;69.20;38.85;;;3.60;99.90;;;;;;5113630;27;20081;-64
2022/01/25 06:54:42;;;;;;;70.25;38.85;;;3.60;99.90;;;;;;5106330;27;20039;-63
2022/01/25 06:57:08;;;;;;;68.03;36.92;;;3.60;99.90;;;;;;5129025;27;20047;-63
2022/01/25 06:59:34;;;;;;;72.03;39.45;;;3.50;99.90;;;;;;5112867;27;20052;-63
2022/01/25 07:02:00;;;;;;;72.63;37.65;;;3.50;99.90;;;;;;5145262;27;20039;-64
2022/01/25 07:04:26;;;;;;;73.53;38.97;;;3.60;99.90;;;;;;5110763;27;20046;-64
2022/01/25 07:06:51;;;;;;;75.85;39.45;;;3.50;99.90;;;;;;5131779;28;20047;-64
2022/01/25 07:09:17;;;;;;;74.55;40.38;;;3.50;99.90;;;;;;5102789;27;20063;-65
2022/01/25 07:11:43;;;;;;;71.63;38.45;;;3.50;99.90;;;;;;5094877;28;20061;-63
2022/01/25 07:14:08;;;;;;;73.78;37.90;;;3.50;99.90;;;;;;5116823;28;20035;-64
2022/01/25 07:16:34;;;;;;;73.95;37.65;;;3.50;99.90;;;;;;5130483;27;20149;-63
2022/01/25 07:19:00;;;;;;;81.13;39.08;;;3.50;99.90;;;;;;5119242;28;20055;-64
2022/01/25 07:21:26;;;;;;;73.70;37.95;;;3.50;99.90;;;;;;5129568;27;20053;-63
2022/01/25 07:23:52;;;;;;;71.88;38.47;;;3.50;99.90;;;;;;5116889;28;20075;-63
2022/01/25 07:26:17;;;;;;;76.72;39.55;;;3.50;99.90;;;;;;5124116;27;20046;-63
2022/01/25 07:28:43;;;;;;;75.50;40.03;;;3.50;99.90;;;;;;5104976;28;20065;-63
2022/01/25 07:31:09;;;;;;;72.03;38.40;;;3.50;99.90;;;;;;5125183;27;20525;-63
2022/01/25 07:33:35;;;;;;;75.35;38.95;;;3.40;99.90;;;;;;5120381;27;20103;-63
2022/01/25 07:36:01;;;;;;;72.25;38.78;;;3.50;99.90;;;;;;5116391;27;20085;-62
2022/01/25 07:38:27;;;;;;;69.93;37.92;;;3.50;99.90;;;;;;5120306;27;20047;-63
2022/01/25 07:40:53;;;;;;;72.93;38.03;;;3.60;99.90;;;;;;5124687;27;20053;-62
2022/01/25 07:43:19;;;;;;;72.95;37.72;;;3.60;99.90;;;;;;5128752;27;20188;-62
2022/01/25 07:45:50;;;;;;;69.35;37.20;;;3.60;99.90;;;;;;5123524;27;20065;-62
2022/01/25 07:48:16;;;;;;;72.55;38.65;;;3.60;99.90;;;;;;5123635;27;20040;-62
2022/01/25 07:50:42;;;;;;;71.20;37.08;;;3.60;99.90;;;;;;5125641;27;20050;-62
2022/01/25 07:53:08;;;;;;;74.65;37.92;;;3.60;99.90;;;;;;5127214;27;20081;-62
2022/01/25 07:55:34;;;;;;;73.70;39.38;;;3.60;99.90;;;;;;5123930;27;20062;-62
2022/01/25 07:58:00;;;;;;;75.07;38.78;;;3.60;99.90;;;;;;5127685;27;20052;-62
2022/01/25 08:00:25;;;;;;;75.43;38.15;;;3.60;99.90;;;;;;5145687;27;20808;-62
2022/01/25 08:02:51;;;;;;;76.22;38.47;;;3.60;99.90;;;;;;5119457;27;20058;-63
2022/01/25 08:05:19;;;;;;;69.22;37.13;;;3.60;99.90;;;;;;5116847;27;20409;-62
2022/01/25 08:07:45;;;;;;;71.30;38.03;;;3.60;99.90;;;;;;5124405;27;20058;-63
2022/01/25 08:10:11;;;;;;;74.10;37.78;;;3.60;99.90;;;;;;5109110;27;20050;-62
2022/01/25 08:12:38;;;;;;;72.32;37.17;;;3.60;99.90;;;;;;5132262;27;20107;-63
2022/01/25 08:15:05;;;;;;;73.03;39.42;;;3.50;99.90;;;;;;5147900;27;20104;-62
2022/01/25 08:17:31;;;;;;;73.75;39.28;;;3.50;99.90;;;;;;5108437;28;20094;-62
2022/01/25 08:19:57;;;;;;;75.40;38.20;;;3.60;99.90;;;;;;5112943;27;20498;-62
2022/01/25 08:22:24;;;;;;;75.30;38.97;;;3.60;99.90;;;;;;5132881;27;20047;-62
2022/01/25 08:24:50;;;;;;;68.97;36.45;;;3.50;99.90;;;;;;5141637;27;20103;-62
2022/01/25 08:27:20;;;;;;;74.28;38.38;;;3.60;99.90;;;;;;5116338;28;20043;-62
2022/01/25 08:29:49;;;;;;;74.63;38.17;;;3.60;99.90;;;;;;5147544;27;20079;-62
2022/01/25 08:32:15;;;;;;;74.30;37.88;;;3.50;99.90;;;;;;5135140;27;20502;-62
2022/01/25 08:34:41;;;;;;;74.82;40.00;;;3.60;99.90;;;;;;5104633;27;20047;-63
2022/01/25 08:37:07;;;;;;;71.68;37.83;;;3.60;99.90;;;;;;5137330;27;20267;-62
2022/01/25 08:39:33;;;;;;;74.05;37.65;;;3.60;99.90;;;;;;5118032;28;20206;-62
2022/01/25 08:41:59;;;;;;;72.40;37.28;;;3.60;99.90;;;;;;5127744;27;20393;-62
2022/01/25 08:44:25;;;;;;;80.20;41.67;;;3.50;99.90;;;;;;5118257;28;20383;-62
2022/01/25 08:46:51;;;;;;;69.93;37.13;;;3.60;99.90;;;;;;5128223;27;20048;-63
2022/01/25 08:49:17;;;;;;;72.88;39.85;;;3.70;99.90;;;;;;5110728;28;20182;-62
2022/01/25 08:51:43;;;;;;;76.03;38.50;;;3.70;99.90;;;;;;5140163;27;20050;-62
2022/01/25 08:54:09;;;;;;;69.70;36.42;;;3.70;99.90;;;;;;5121497;28;20057;-63
2022/01/25 08:56:35;;;;;;;76.70;40.17;;;3.70;99.90;;;;;;5141191;27;20058;-62
2022/01/25 08:59:00;;;;;;;67.45;36.50;;;3.70;99.90;;;;;;5114798;27;20044;-62
2022/01/25 09:01:27;;;;;;;73.30;38.35;;;3.70;99.90;;;;;;5136342;27;20055;-62
2022/01/25 09:03:56;;;;;;;73.35;36.25;;;3.70;99.90;;;;;;5113821;27;20052;-64
2022/01/25 09:06:22;;;;;;;72.70;37.35;;;3.70;99.90;;;;;;5133941;27;20046;-63
2022/01/25 09:08:50;;;;;;;72.38;37.72;;;3.80;99.90;;;;;;5102997;27;20047;-64
2022/01/25 09:11:16;;;;;;;69.25;34.90;;;3.80;99.90;;;;;;5130737;27;20046;-63
2022/01/25 09:13:41;;;;;;;75.60;39.08;;;3.80;99.90;;;;;;5122081;27;20051;-64
2022/01/25 09:16:08;;;;;;;70.75;37.65;;;3.90;99.90;;;;;;5131179;27;20118;-63
2022/01/25 09:18:36;;;;;;;72.97;38.97;;;4.00;99.90;;;;;;5123517;27;20051;-63
2022/01/25 09:21:02;;;;;;;74.72;37.53;;;4.00;99.90;;;;;;5134044;27;20145;-63
2022/01/25 09:23:28;;;;;;;75.65;39.00;;;4.00;99.90;;;;;;5116809;27;20032;-63
2022/01/25 09:25:55;;;;;;;70.43;34.42;;;4.10;99.90;;;;;;5118927;27;20146;-63
2022/01/25 09:28:21;;;;;;;71.00;37.03;;;4.10;99.90;;;;;;5126230;27;20062;-63
2022/01/25 09:30:47;;;;;;;70.57;35.55;;;4.10;99.90;;;;;;5122854;27;20272;-63
2022/01/25 09:33:14;;;;;;;70.70;37.53;;;4.10;99.90;;;;;;5127705;27;20138;-63
2022/01/25 09:35:40;;;;;;;76.53;37.15;;;4.00;99.90;;;;;;5122769;27;20154;-63
2022/01/25 09:38:06;;;;;;;72.05;38.88;;;4.00;99.90;;;;;;5132488;27;20048;-63
2022/01/25 09:40:32;;;;;;;69.65;35.47;;;4.00;99.90;;;;;;5119433;27;20047;-62
2022/01/25 09:42:58;;;;;;;70.78;35.45;;;4.00;99.90;;;;;;5119273;27;20068;-63
2022/01/25 09:45:26;;;;;;;68.40;35.92;;;4.00;99.90;;;;;;5115903;27;20507;-62
2022/01/25 09:47:52;;;;;;;73.88;35.72;;;4.00;99.90;;;;;;5129547;27;20035;-62
2022/01/25 09:50:19;;;;;;;74.63;36.45;;;3.90;99.90;;;;;;5113130;27;20121;-62
2022/01/25 09:52:45;;;;;;;71.05;35.90;;;3.90;99.90;;;;;;5123615;27;20060;-63
2022/01/25 09:55:15;;;;;;;73.25;36.88;;;3.90;99.90;;;;;;5102445;27;20080;-62
2022/01/25 09:57:42;;;;;;;70.90;36.88;;;3.90;99.90;;;;;;5146632;27;20070;-62
2022/01/25 10:00:10;;;;;;;72.57;36.58;;;4.00;99.90;;;;;;5146807;27;20461;-62
2022/01/25 10:02:51;;;;;;;69.38;36.28;;;3.90;99.90;;;;;;5131636;27;20118;-62
2022/01/25 10:05:25;;;;;;;;;;;4.00;99.90;;;;;;5113919;27;20498;-63
2022/01/25 10:07:59;;;;;;;71.95;36.72;;;4.00;99.90;;;;;;5142837;27;20226;-63
2022/01/25 10:10:26;;;;;;;70.10;35.55;;;4.10;99.90;;;;;;5108320;27;20082;-62
2022/01/25 10:12:55;;;;;;;70.57;36.25;;;4.10;99.90;;;;;;5145928;27;20079;-63
2022/01/25 10:15:23;;;;;;;71.72;37.75;;;4.20;99.90;;;;;;5093469;27;20051;-63
2022/01/25 10:17:49;;;;;;;71.00;35.80;;;4.20;99.90;;;;;;5094513;28;20126;-62
2022/01/25 10:20:33;;;;;;;69.22;36.92;;;4.20;99.90;;;;;;5108844;27;20043;-63
2022/01/25 10:23:01;;;;;;;72.75;36.30;;;4.20;99.90;;;;;;5134904;27;20147;-63
2022/01/25 10:25:34;;;;;;;67.03;34.95;;;4.20;99.90;;;;;;5114438;27;20051;-62
2022/01/25 10:28:01;;;;;;;71.00;36.45;;;4.10;99.90;;;;;;5142343;27;20075;-62
2022/01/25 10:30:35;;;;;;;74.43;37.00;;;4.10;99.90;;;;;;5102943;27;20051;-63
2022/01/25 10:33:02;;;;;;;75.85;37.03;;;4.10;99.90;;;;;;5125646;27;20430;-63
2022/01/25 10:35:29;;;;;;;75.32;36.80;;;4.10;99.90;;;;;;5107756;27;20047;-63
2022/01/25 10:37:55;;;;;;;74.30;36.47;;;4.20;99.90;;;;;;5112731;28;20078;-62
2022/01/25 10:41:06;;;;;;;79.35;39.33;;;4.20;99.90;;;;;;5113686;27;20103;-63
2022/01/25 10:43:32;;;;;;;72.50;36.13;;;4.20;99.90;;;;;;5114570;27;20043;-63
2022/01/25 10:46:13;;;;;;;72.78;36.65;;;4.20;99.90;;;;;;5122722;27;20071;-63
2022/01/25 10:48:42;;;;;;;74.22;37.40;;;4.20;99.90;;;;;;5121930;27;20043;-62
2022/01/25 10:51:15;;;;;;;79.07;37.38;;;4.20;99.90;;;;;;5117704;27;20050;-63
2022/01/25 10:53:41;;;;;;;75.78;36.17;;;4.10;99.90;;;;;;5123056;27;20052;-62
2022/01/25 10:56:09;;;;;;;70.40;38.10;;;4.10;99.90;;;;;;5124162;27;20086;-62
2022/01/25 10:58:41;;;;;;;75.60;36.90;;;4.10;99.90;;;;;;5109165;27;20058;-63
2022/01/25 11:01:09;;;;;;;74.28;35.70;;;4.10;99.90;;;;;;5122487;27;20090;-63
2022/01/25 11:03:43;;;;;;;69.63;35.67;;;4.10;99.90;;;;;;5122094;27;20100;-62
2022/01/25 11:06:17;;;;;;;75.57;36.55;;;4.10;99.90;;;;;;5123627;27;20051;-62
2022/01/25 11:08:49;;;;;;;76.63;36.20;;;4.20;99.90;;;;;;5121246;27;20757;-63
2022/01/25 11:11:30;;;;;;;73.05;37.97;;;4.20;99.90;;;;;;5114165;28;20047;-62
2022/01/25 11:14:00;;;;;;;74.13;36.50;;;4.20;99.90;;;;;;5104904;28;20085;-64
2022/01/25 11:16:26;;;;;;;74.38;36.25;;;4.20;99.90;;;;;;5119246;27;20047;-63
2022/01/25 11:18:52;;;;;;;72.20;36.28;;;4.20;99.90;;;;;;5104812;28;20045;-64
2022/01/25 11:21:19;;;;;;;68.03;35.53;;;4.10;99.90;;;;;;5142711;27;20050;-63
2022/01/25 11:23:46;;;;;;;75.30;36.75;;;4.10;99.90;;;;;;5125309;27;20077;-63
2022/01/25 11:26:14;;;;;;;75.80;38.15;;;4.20;99.90;;;;;;5124615;27;20055;-63
2022/01/25 11:28:41;;;;;;;73.97;35.20;;;4.10;99.90;;;;;;5132803;27;20044;-63
2022/01/25 11:31:11;;;;;;;69.28;34.58;;;4.20;99.90;;;;;;5122405;27;20047;-63
2022/01/25 11:33:41;;;;;;;;;;;4.20;99.90;;;;;;5136612;27;20055;-63
2022/01/25 11:36:08;;;;;;;71.43;34.22;;;4.30;99.90;;;;;;5121535;27;19919;-63
2022/01/25 11:38:40;;;;;;;73.75;38.75;;;4.20;99.90;;;;;;5107424;28;20046;-63
2022/01/25 11:41:14;;;;;;;75.15;35.63;;;4.20;99.90;;;;;;5118677;27;20145;-63
2022/01/25 11:44:04;;;;;;;71.28;35.72;;;4.20;99.90;;;;;;5124291;28;20043;-63
2022/01/25 11:46:30;;;;;;;75.37;37.17;;;4.20;99.90;;;;;;5126392;27;20104;-63
2022/01/25 11:49:04;;;;;;;71.50;36.05;;;4.20;99.90;;;;;;5126367;27;20099;-64
2022/01/25 11:51:29;;;;;;;79.95;38.47;;;4.20;99.90;;;;;;5126029;27;20080;-63
2022/01/25 11:53:55;;;;;;;73.13;36.13;;;4.20;99.90;;;;;;5127843;27;20052;-63
2022/01/25 11:56:21;;;;;;;72.22;35.70;;;4.20;99.90;;;;;;5122114;27;20115;-64
2022/01/25 11:58:55;;;;;;;69.72;37.00;;;4.20;99.90;;;;;;5129921;27;20075;-64
2022/01/25 12:01:24;;;;;;;72.97;35.30;;;4.20;99.90;;;;;;5119441;27;20051;-64
2022/01/25 12:04:04;;;;;;;75.40;35.90;;;4.20;99.90;;;;;;5136755;27;20066;-64
2022/01/25 12:06:37;;;;;;;69.07;34.50;;;4.20;99.90;;;;;;5120463;27;20082;-64
2022/01/25 12:09:19;;;;;;;75.35;36.17;;;4.10;99.90;;;;;;5113758;27;20043;-64
2022/01/25 12:11:58;;;;;;;73.03;35.95;;;4.10;99.90;;;;;;5123936;27;20059;-64
2022/01/25 12:14:24;;;;;;;71.10;35.00;;;4.10;99.90;;;;;;5119010;27;20072;-64
2022/01/25 12:16:56;;;;;;;74.53;35.15;;;4.00;99.90;;;;;;5120868;27;20043;-64
2022/01/25 12:19:37;;;;;;;76.88;36.35;;;4.10;99.90;;;;;;5118595;28;20042;-64
2022/01/25 12:22:33;;;;;;;75.65;37.38;;;4.10;99.90;;;;;;5126403;27;20050;-64
2022/01/25 12:25:30;;;;;;;73.22;36.88;;;4.10;99.90;;;;;;5152132;27;20051;-64
2022/01/25 12:28:01;;;;;;;75.28;37.60;;;4.10;99.90;;;;;;5092545;28;20239;-64
2022/01/25 12:30:56;;;;;;;76.82;36.22;;;4.10;99.90;;;;;;5120137;28;20522;-64
2022/01/25 12:33:30;;;;;;;75.88;38.65;;;4.10;99.90;;;;;;5092347;28;20039;-64
2022/01/25 12:36:03;;;;;;;78.97;37.90;;;4.10;99.90;;;;;;5097228;27;20101;-64
2022/01/25 12:38:43;;;;;;;73.55;35.17;;;4.10;99.90;;;;;;5126189;27;20049;-64
2022/01/25 12:41:21;;;;;;;76.72;36.03;;;4.10;99.90;;;;;;5133434;27;20072;-64
2022/01/25 12:43:59;;;;;;;76.97;38.13;;;4.10;99.90;;;;;;5115143;27;20031;-64
2022/01/25 12:46:30;;;;;;;77.30;36.17;;;4.10;99.90;;;;;;5119262;27;20067;-65
2022/01/25 12:48:59;;;;;;;77.05;36.13;;;4.00;99.90;;;;;;5123145;27;20084;-64
2022/01/25 12:51:27;;;;;;;73.50;35.80;;;4.10;99.90;;;;;;5110065;27;20044;-64
2022/01/25 12:53:55;;;;;;;73.85;35.50;;;4.10;99.90;;;;;;5115008;28;20078;-64
2022/01/25 12:56:34;;;;;;;78.32;37.10;;;4.10;99.90;;;;;;5109977;28;20048;-64
2022/01/25 12:59:07;;;;;;;71.35;32.85;;;4.10;99.90;;;;;;5126947;27;20073;-66
2022/01/25 13:01:36;;;;;;;72.68;37.47;;;4.10;99.90;;;;;;5144976;27;20050;-64
2022/01/25 13:04:04;;;;;;;74.07;34.95;;;4.10;99.90;;;;;;5118488;28;20043;-65
2022/01/25 13:06:38;;;;;;;73.78;34.92;;;4.10;99.90;;;;;;5090819;28;20054;-64
2022/01/25 13:14:46;;;;;;;80.40;37.15;;;4.10;99.90;;;;;;5136132;27;20061;-64
2022/01/25 13:17:23;;;;;;;75.30;38.38;;;4.00;99.90;;;;;;5119648;27;20119;-64
2022/01/25 13:19:54;;;;;;;70.95;35.50;;;4.10;99.90;;;;;;5116717;27;20054;-64
2022/01/25 13:22:21;;;;;;;74.10;37.97;;;4.10;99.90;;;;;;5102360;27;20099;-64
2022/01/25 13:25:11;;;;;;;72.05;35.05;;;4.10;99.90;;;;;;5124295;27;20071;-64
2022/01/25 13:27:48;;;;;;;68.95;36.55;;;4.20;99.90;;;;;;5122412;27;20055;-64
2022/01/25 13:33:00;;;;;;;72.47;34.17;;;4.10;99.90;;;;;;5132555;27;20051;-64
2022/01/25 13:35:31;;;;;;;73.57;34.65;;;4.20;99.90;;;;;;5117605;28;20314;-64
2022/01/25 13:38:11;;;;;;;73.35;35.25;;;4.10;99.90;;;;;;5127405;27;20326;-64
2022/01/25 13:40:55;;;;;;;67.03;34.03;;;4.10;99.90;;;;;;5115597;28;20055;-64
2022/01/25 13:45:59;;;;;;;74.88;35.97;;;4.10;99.90;;;;;;5112748;28;20051;-64
2022/01/25 13:48:29;;;;;;;73.63;36.58;;;4.10;99.90;;;;;;5106368;27;20047;-64
2022/01/25 13:50:58;;;;;;;68.45;34.40;;;4.10;99.90;;;;;;5145041;27;20055;-64
2022/01/25 13:53:26;;;;;;;73.50;36.88;;;4.00;99.90;;;;;;5135337;27;20330;-64
2022/01/25 13:55:55;;;;;;;71.20;33.75;;;4.00;99.90;;;;;;5118487;28;20050;-64
2022/01/25 13:58:30;;;;;;;70.80;36.33;;;4.10;99.90;;;;;;5137176;27;20043;-64
2022/01/25 14:00:57;;;;;;;76.13;34.80;;;4.10;99.90;;;;;;5147161;27;20047;-64
2022/01/25 14:03:29;;;;;;;68.68;34.17;;;4.00;99.90;;;;;;5125113;27;20043;-64
2022/01/25 14:05:55;;;;;;;74.68;35.78;;;4.00;99.90;;;;;;5142356;27;20055;-64
2022/01/25 14:08:38;;;;;;;73.63;34.95;;;4.00;99.90;;;;;;5123088;27;20046;-64
2022/01/25 14:11:16;;;;;;;76.50;36.35;;;4.00;99.90;;;;;;5116026;28;20326;-64
2022/01/25 14:24:53;;;;;;;71.35;33.55;;;4.00;99.90;;;;;;5094089;28;20068;-63
2022/01/25 14:27:27;;;;;;;72.82;33.47;;;4.00;99.90;;;;;;5084062;27;20039;-64
2022/01/25 14:29:54;;;;;;;68.40;33.17;;;4.10;99.90;;;;;;5079675;28;20111;-63
2022/01/25 14:32:30;;;;;;;67.43;33.60;;;4.00;99.90;;;;;;5077722;28;20043;-63
2022/01/25 14:35:10;;;;;;;72.38;33.70;;;4.10;99.90;;;;;;5080401;28;20059;-63
2022/01/25 14:37:47;;;;;;;78.65;36.00;;;4.10;99.90;;;;;;5097844;28;20563;-63
2022/01/25 14:40:14;;;;;;;68.88;33.92;;;4.00;99.90;;;;;;5072617;28;20059;-63
2022/01/25 14:42:42;;;;;;;70.15;33.10;;;4.00;99.90;;;;;;5091710;27;23807;-63
2022/01/25 14:45:19;;;;;;;77.57;36.70;;;4.10;99.90;;;;;;5098811;28;20056;-65
2022/01/25 14:47:47;;;;;;;70.03;35.17;;;4.10;99.90;;;;;;5089546;27;20059;-63
2022/01/25 14:50:24;;;;;;;67.63;34.28;;;4.00;99.90;;;;;;5093386;28;20093;-63
2022/01/25 14:53:09;;;;;;;71.05;33.30;;;4.00;99.90;;;;;;5127930;27;20074;-63
2022/01/25 14:55:38;;;;;;;69.70;36.05;;;4.00;99.90;;;;;;5117130;27;20048;-63